| time (UTC) | temp F | wind direction | speed MPH | gust MPH | rain 1hr in | rain 24hr in | rain mn in | humidity % | barometer mb |
| 20260508184558 | 70 | 221 | 2.0 | 9.0 | 0.00 | 0.00 | 0.00 | 46 | 1016.5 |
| 20260508183053 | 68 | 318 | 1.0 | 7.0 | 0.00 | 0.00 | 0.00 | 47 | 1016.7 |
| 20260508181543 | 68 | 293 | 1.0 | 8.0 | 0.00 | 0.00 | 0.00 | 49 | 1016.8 |
| 20260508180042 | 67 | 234 | 0.0 | 5.0 | 0.00 | 0.00 | 0.00 | 54 | 1016.9 |
| 20260508174557 | 68 | 355 | 2.0 | 5.0 | 0.00 | 0.00 | 0.00 | 45 | 1017.0 |
| 20260508173041 | 68 | 279 | 1.0 | 6.0 | 0.00 | 0.00 | 0.00 | 45 | 1017.2 |
| 20260508171538 | 68 | 210 | 1.0 | 4.0 | 0.00 | 0.00 | 0.00 | 52 | 1017.4 |
| 20260508170038 | 67 | 5 | 2.0 | 4.0 | 0.00 | 0.00 | 0.00 | 48 | 1017.6 |
| 20260508164544 | 66 | 239 | 2.0 | 5.0 | 0.00 | 0.00 | 0.00 | 47 | 1018.1 |
| 20260508163104 | 66 | 172 | 0.0 | 3.0 | 0.00 | 0.00 | 0.00 | 54 | 1018.1 |
| 20260508161531 | 67 | 189 | 1.0 | 4.0 | 0.00 | 0.00 | 0.00 | 49 | 1018.3 |
| 20260508160030 | 66 | 266 | 1.0 | 5.0 | 0.00 | 0.00 | 0.00 | 49 | 1018.5 |
| 20260508154525 | 64 | 262 | 2.0 | 4.0 | 0.00 | 0.00 | 0.00 | 49 | 1018.8 |
| 20260508153027 | 64 | 49 | 1.0 | 6.0 | 0.00 | 0.00 | 0.00 | 51 | 1018.9 |
| 20260508151526 | 63 | 334 | 2.0 | 6.0 | 0.00 | 0.00 | 0.00 | 51 | 1018.8 |
| 20260508150015 | 61 | 336 | 1.0 | 5.0 | 0.00 | 0.00 | 0.00 | 56 | 1018.7 |
| 20260508144513 | 61 | 35 | 4.0 | 8.0 | 0.00 | 0.05 | 0.00 | 59 | 1018.8 |
| 20260508143010 | 60 | 355 | 1.0 | 6.0 | 0.00 | 0.05 | 0.00 | 59 | 1018.9 |
| 20260508141507 | 60 | 349 | 2.0 | 9.0 | 0.00 | 0.05 | 0.00 | 61 | 1019.0 |
| 20260508140004 | 59 | 346 | 0.0 | 5.0 | 0.00 | 0.05 | 0.00 | 64 | 1019.1 |
| 20260508134501 | 58 | 20 | 0.0 | 5.0 | 0.00 | 0.06 | 0.00 | 69 | 1019.1 |
| 20260508133106 | 57 | 5 | 0.0 | 4.0 | 0.00 | 0.06 | 0.00 | 67 | 1019.0 |
| 20260508131557 | 56 | 31 | 1.0 | 4.0 | 0.00 | 0.06 | 0.00 | 68 | 1018.8 |
| 20260508130104 | 55 | 23 | 3.0 | 5.0 | 0.00 | 0.06 | 0.00 | 74 | 1018.8 |
| 20260508124548 | 54 | 19 | 0.0 | 3.0 | 0.00 | 0.11 | 0.00 | 81 | 1018.7 |
| 20260508123047 | 53 | 351 | 0.0 | 3.0 | 0.00 | 0.11 | 0.00 | 89 | 1018.5 |
| 20260508121544 | 51 | 351 | 0.0 | 1.0 | 0.00 | 0.11 | 0.00 | 93 | 1018.4 |
| 20260508120044 | 50 | 351 | 0.0 | 1.0 | 0.00 | 0.11 | 0.00 | 95 | 1018.1 |
| 20260508114541 | 48 | 351 | 0.0 | 0.0 | 0.00 | 0.21 | 0.00 | 95 | 1018.0 |
| 20260508113047 | 47 | 350 | 0.0 | 0.0 | 0.00 | 0.21 | 0.00 | 95 | 1017.6 |
| 20260508111536 | 47 | 350 | 0.0 | 0.0 | 0.00 | 0.21 | 0.00 | 95 | 1017.4 |
| 20260508110045 | 46 | 350 | 0.0 | 0.0 | 0.00 | 0.21 | 0.00 | 94 | 1017.1 |
| 20260508104528 | 46 | 350 | 0.0 | 1.0 | 0.00 | 0.27 | 0.00 | 94 | 1016.8 |
| 20260508103026 | 47 | 350 | 0.0 | 1.0 | 0.00 | 0.27 | 0.00 | 94 | 1016.6 |
| 20260508101532 | 47 | 350 | 0.0 | 1.0 | 0.00 | 0.27 | 0.00 | 94 | 1016.3 |
| 20260508100021 | 47 | 350 | 0.0 | 0.0 | 0.00 | 0.27 | 0.00 | 94 | 1016.1 |
| 20260508094520 | 47 | 350 | 0.0 | 2.0 | 0.00 | 0.27 | 0.00 | 94 | 1016.0 |
| 20260508093037 | 48 | 350 | 0.0 | 0.0 | 0.00 | 0.27 | 0.00 | 94 | 1016.0 |
| 20260508091522 | 48 | 350 | 0.0 | 0.0 | 0.00 | 0.27 | 0.00 | 94 | 1016.0 |
| 20260508090027 | 47 | 350 | 0.0 | 0.0 | 0.00 | 0.27 | 0.00 | 94 | 1015.7 |
| 20260508084515 | 48 | 350 | 0.0 | 0.0 | 0.00 | 0.28 | 0.00 | 93 | 1015.6 |
| 20260508083020 | 47 | 350 | 0.0 | 0.0 | 0.00 | 0.28 | 0.00 | 93 | 1015.5 |
| 20260508081512 | 47 | 350 | 0.0 | 0.0 | 0.00 | 0.28 | 0.00 | 92 | 1015.4 |
| 20260508080009 | 48 | 350 | 0.0 | 0.0 | 0.00 | 0.28 | 0.00 | 92 | 1015.3 |
| 20260508074513 | 48 | 350 | 0.0 | 0.0 | 0.00 | 0.44 | 0.00 | 92 | 1015.2 |
| 20260508073008 | 48 | 350 | 0.0 | 0.0 | 0.00 | 0.44 | 0.00 | 92 | 1015.1 |
| 20260508071505 | 48 | 350 | 0.0 | 0.0 | 0.00 | 0.44 | 0.00 | 91 | 1015.0 |
| 20260508070002 | 49 | 350 | 0.0 | 0.0 | 0.00 | 0.44 | 0.00 | 91 | 1014.9 |
| 20260508064600 | 49 | 350 | 0.0 | 0.0 | 0.00 | 0.62 | 0.00 | 90 | 1014.8 |
| 20260508063058 | 50 | 350 | 0.0 | 0.0 | 0.00 | 0.62 | 0.00 | 89 | 1014.7 |
| 20260508061606 | 50 | 350 | 0.0 | 1.0 | 0.00 | 0.62 | 0.00 | 89 | 1014.8 |
| 20260508060056 | 50 | 350 | 0.0 | 0.0 | 0.00 | 0.62 | 0.00 | 89 | 1014.8 |
| 20260508054630 | 51 | 350 | 0.0 | 1.0 | 0.00 | 0.87 | 0.00 | 88 | 1014.9 |
| 20260508053052 | 51 | 350 | 0.0 | 0.0 | 0.00 | 0.87 | 0.00 | 88 | 1014.9 |
| 20260508051551 | 51 | 350 | 0.0 | 1.0 | 0.00 | 0.87 | 0.00 | 86 | 1014.8 |
| 20260508050050 | 52 | 350 | 0.0 | 0.0 | 0.00 | 0.87 | 0.00 | 85 | 1014.7 |
| 20260508044556 | 53 | 350 | 0.0 | 0.0 | 0.00 | 0.91 | 0.00 | 84 | 1014.5 |
| 20260508043043 | 53 | 350 | 0.0 | 1.0 | 0.00 | 0.91 | 0.00 | 83 | 1014.4 |
| 20260508041549 | 54 | 350 | 0.0 | 1.0 | 0.00 | 0.91 | 0.00 | 80 | 1014.2 |
| 20260508040037 | 55 | 350 | 0.0 | 1.0 | 0.00 | 0.91 | 0.00 | 78 | 1014.3 |
| 20260508034532 | 56 | 350 | 0.0 | 1.0 | 0.00 | 0.92 | 0.91 | 75 | 1014.3 |
| 20260508033036 | 57 | 350 | 0.0 | 1.0 | 0.00 | 0.92 | 0.91 | 73 | 1014.2 |
| 20260508031528 | 57 | 350 | 0.0 | 1.0 | 0.00 | 0.92 | 0.91 | 70 | 1014.1 |
| 20260508030034 | 59 | 350 | 0.0 | 3.0 | 0.00 | 0.92 | 0.91 | 67 | 1014.1 |
| 20260508024523 | 60 | 315 | 1.0 | 4.0 | 0.00 | 1.26 | 0.91 | 61 | 1013.9 |
| 20260508023034 | 61 | 23 | 1.0 | 3.0 | 0.00 | 1.26 | 0.91 | 60 | 1013.7 |
| 20260508021517 | 61 | 9 | 2.0 | 5.0 | 0.00 | 1.26 | 0.91 | 59 | 1013.4 |
| 20260508020016 | 62 | 323 | 2.0 | 5.0 | 0.00 | 1.26 | 0.91 | 60 | 1013.3 |
| 20260508014515 | 62 | 35 | 1.0 | 4.0 | 0.00 | 1.64 | 0.91 | 62 | 1013.0 |
| 20260508013014 | 63 | 336 | 1.0 | 4.0 | 0.00 | 1.64 | 0.91 | 63 | 1012.5 |
| 20260508011513 | 63 | 335 | 1.0 | 6.0 | 0.00 | 1.64 | 0.91 | 63 | 1012.3 |
| 20260508010018 | 63 | 355 | 2.0 | 9.0 | 0.00 | 1.64 | 0.91 | 64 | 1012.2 |
| 20260508004518 | 63 | 32 | 2.0 | 8.0 | 0.00 | 1.90 | 0.91 | 74 | 1011.8 |
| 20260508003014 | 64 | 24 | 2.0 | 4.0 | 0.00 | 1.90 | 0.91 | 79 | 1011.4 |
| 20260508001511 | 64 | 26 | 4.0 | 9.0 | 0.00 | 1.90 | 0.91 | 79 | 1010.9 |
| 20260508000010 | 64 | 42 | 1.0 | 5.0 | 0.00 | 1.90 | 0.91 | 82 | 1010.6 |
| 20260507234508 | 65 | 13 | 3.0 | 8.0 | 0.00 | 2.02 | 0.91 | 82 | 1010.3 |
| 20260507233009 | 65 | 82 | 5.0 | 11.0 | 0.00 | 2.02 | 0.91 | 81 | 1010.1 |
| 20260507231506 | 66 | 111 | 5.0 | 14.0 | 0.00 | 2.02 | 0.91 | 80 | 1009.6 |
| 20260507230006 | 67 | 285 | 3.0 | 12.0 | 0.00 | 2.02 | 0.91 | 80 | 1009.5 |
| 20260507224508 | 69 | 94 | 4.0 | 15.0 | 0.00 | 2.02 | 0.91 | 76 | 1008.8 |
| 20260507223006 | 75 | 355 | 4.0 | 10.0 | 0.00 | 2.02 | 0.91 | 61 | 1008.3 |
| 20260507221503 | 74 | 281 | 2.0 | 14.0 | 0.00 | 2.02 | 0.91 | 66 | 1008.0 |
| 20260507220003 | 73 | 290 | 0.0 | 2.0 | 0.00 | 2.02 | 0.91 | 77 | 1007.5 |
| 20260507214502 | 75 | 300 | 1.0 | 3.0 | 0.00 | 2.02 | 0.91 | 68 | 1007.5 |
| 20260507213005 | 77 | 164 | 2.0 | 8.0 | 0.00 | 2.02 | 0.91 | 66 | 1007.3 |
| 20260507211559 | 77 | 190 | 1.0 | 9.0 | 0.00 | 2.02 | 0.91 | 69 | 1007.3 |
| 20260507210120 | 77 | 230 | 1.0 | 7.0 | 0.00 | 2.02 | 0.91 | 70 | 1007.2 |
| 20260507204658 | 76 | 172 | 2.0 | 7.0 | 0.00 | 2.02 | 0.91 | 69 | 1007.2 |
| 20260507203107 | 74 | 198 | 1.0 | 5.0 | 0.00 | 2.02 | 0.91 | 71 | 1007.4 |
| 20260507201600 | 74 | 259 | 2.0 | 5.0 | 0.00 | 2.02 | 0.91 | 73 | 1007.3 |
| 20260507200106 | 76 | 229 | 2.0 | 8.0 | 0.00 | 2.02 | 0.91 | 69 | 1007.3 |
| 20260507194554 | 77 | 156 | 2.0 | 8.0 | 0.00 | 2.02 | 0.91 | 65 | 1007.6 |
| 20260507193111 | 77 | 256 | 2.0 | 8.0 | 0.00 | 2.02 | 0.91 | 68 | 1007.7 |
| 20260507191555 | 76 | 255 | 3.0 | 8.0 | 0.00 | 2.02 | 0.91 | 68 | 1007.8 |
| 20260507190046 | 76 | 194 | 4.0 | 6.0 | 0.00 | 2.02 | 0.91 | 66 | 1008.4 |